This is the latest recevied weather packets stored in our database for station/object AK4NG. If no packets are shown the sender has not sent any weather packets the latest 10 day(s).
| Time | Temp. | Humidity | Pressure | Rain* | Wind** | Luminosity | Snow |
|---|---|---|---|---|---|---|---|
| 1778105294 | 25° C | 85% | 1012.1 hPa | 0 mm | - | 131 W/m² | - |
| 1778104994 | 25° C | 87% | 1012.1 hPa | 0 mm | - | 89 W/m² | - |
| 1778104691 | 25.56° C | 86% | 1012.2 hPa | 0 mm | - | 142 W/m² | - |
| 1778104387 | 25.56° C | 81% | 1012.2 hPa | 0 mm | - | 142 W/m² | - |
| 1778104083 | 26.11° C | 79% | 1012.5 hPa | 0 mm | - | 79 W/m² | - |
| 1778103780 | 26.11° C | 78% | 1012.6 hPa | 0 mm | - | 19 W/m² | - |
| 1778103478 | 26.67° C | 76% | 1012.2 hPa | 0 mm | - | 36 W/m² | - |
| 1778103174 | 26.67° C | 74% | 1012.3 hPa | 0 mm | - | 57 W/m² | - |
| 1778102872 | 27.22° C | 72% | 1012.5 hPa | 0 mm | - | 59 W/m² | - |
| 1778102568 | 27.78° C | 70% | 1013 hPa | 0 mm | - | 72 W/m² | - |
| 1778102263 | 27.78° C | 70% | 1012.5 hPa | 0 mm | - | 284 W/m² | - |
| 1778101960 | 27.78° C | 70% | 1012.4 hPa | 0 mm | - | 310 W/m² | - |
| 1778101657 | 27.78° C | 68% | 1012.6 hPa | 0 mm | - | 522 W/m² | - |
| 1778101353 | 27.22° C | 71% | 1012.8 hPa | 0 mm | - | 290 W/m² | - |
| 1778101051 | 27.22° C | 71% | 1013.3 hPa | 0 mm | - | 242 W/m² | - |
| 1778100746 | 27.78° C | 72% | 1013.3 hPa | 0 mm | - | 244 W/m² | - |
| 1778100444 | 27.78° C | 69% | 1013.4 hPa | 0 mm | - | 197 W/m² | - |
| 1778100141 | 27.78° C | 70% | 1013.3 hPa | 0 mm | - | 264 W/m² | - |
| 1778099839 | 27.78° C | 69% | 1013.5 hPa | 0 mm | - | 182 W/m² | - |
| 1778099535 | 27.78° C | 70% | 1013.7 hPa | 0 mm | - | 186 W/m² | - |
| 1778099234 | 27.78° C | 70% | 1013.8 hPa | 0 mm | - | 240 W/m² | - |
| 1778098929 | 28.33° C | 67% | 1014.2 hPa | 0 mm | - | 204 W/m² | - |
| 1778098627 | 28.33° C | 66% | 1014 hPa | 0 mm | - | 431 W/m² | - |
| 1778098323 | 27.78° C | 68% | 1014.3 hPa | 0 mm | - | 426 W/m² | - |
| 1778098020 | 28.33° C | 66% | 1014.4 hPa | 0 mm | - | 314 W/m² | - |
* Rain latest hour (hover to see other rain measurements)
** Current wind speed in m/s (hover to see current wind gust speed)